EZY9012 LPPT-EGLL
Flight info
| Callsign | EZY9012 |
|---|---|
| Flight time | N/A |
| Altitude | 34000 |
| Route | IXIDA DCT RIVRO DCT TOSDI DCT ZMR DCT NUBLO DCT RONSI DCT DELOG DCT DEGEX DCT OZNOH DCT JSY DCT REVTU UP87 ROXOG |
| Aircraft | A320/M-SDE3FGHIRWY/LB1 |
Departure
| Time | 2026-05-07 19:51 |
|---|---|
| Airport | Lisbon Humberto Delgado Airport (LPPT) |
Arrival
| Time | N/A |
|---|---|
| Airport | London Heathrow Airport (EGLL) |
| Time | Latitude | Longitude | Altitude | Speed | Heading |
|---|---|---|---|---|---|
| 2026-05-07 19:23 | 38.77432 | -9.13141 | 326 ft | 0 kts | 77° |
| 2026-05-07 19:40 | 38.77428 | -9.13163 | 327 ft | 2 kts | 77° |
| 2026-05-07 19:40 | 38.77425 | -9.13182 | 327 ft | 2 kts | 77° |
| 2026-05-07 19:40 | 38.77420 | -9.13209 | 328 ft | 2 kts | 77° |
| 2026-05-07 19:40 | 38.77414 | -9.13248 | 328 ft | 1 kts | 62° |
| 2026-05-07 19:41 | 38.77384 | -9.13269 | 329 ft | 2 kts | 349° |
| 2026-05-07 19:41 | 38.77353 | -9.13261 | 329 ft | 2 kts | 0° |
| 2026-05-07 19:41 | 38.77329 | -9.13255 | 329 ft | 2 kts | 346° |
| 2026-05-07 19:41 | 38.77315 | -9.13254 | 329 ft | 2 kts | 351° |
| 2026-05-07 19:42 | 38.77305 | -9.13251 | 329 ft | 2 kts | 349° |
| 2026-05-07 19:42 | 38.77285 | -9.13247 | 329 ft | 2 kts | 349° |
| 2026-05-07 19:42 | 38.77265 | -9.13241 | 330 ft | 2 kts | 348° |
| 2026-05-07 19:42 | 38.77239 | -9.13235 | 330 ft | 0 kts | 348° |
| 2026-05-07 19:45 | 38.77240 | -9.13235 | 330 ft | 0 kts | 348° |
| 2026-05-07 19:45 | 38.77243 | -9.13236 | 330 ft | 0 kts | 348° |
| 2026-05-07 19:45 | 38.77252 | -9.13238 | 330 ft | 4 kts | 348° |
| 2026-05-07 19:46 | 38.77299 | -9.13255 | 329 ft | 9 kts | 332° |
| 2026-05-07 19:46 | 38.77323 | -9.13345 | 330 ft | 13 kts | 261° |
| 2026-05-07 19:46 | 38.77301 | -9.13469 | 333 ft | 15 kts | 258° |
| 2026-05-07 19:46 | 38.77280 | -9.13611 | 338 ft | 15 kts | 261° |
| 2026-05-07 19:47 | 38.77260 | -9.13736 | 343 ft | 13 kts | 258° |
| 2026-05-07 19:47 | 38.77232 | -9.13843 | 345 ft | 13 kts | 220° |
| 2026-05-07 19:47 | 38.77138 | -9.13896 | 345 ft | 16 kts | 203° |
| 2026-05-07 19:47 | 38.77025 | -9.13958 | 344 ft | 20 kts | 203° |
| 2026-05-07 19:48 | 38.76873 | -9.14037 | 341 ft | 26 kts | 202° |
| 2026-05-07 19:48 | 38.76703 | -9.14130 | 338 ft | 27 kts | 205° |
| 2026-05-07 19:48 | 38.76603 | -9.14190 | 337 ft | 9 kts | 218° |
| 2026-05-07 19:48 | 38.76602 | -9.14260 | 337 ft | 2 kts | 291° |
| 2026-05-07 19:49 | 38.76604 | -9.14267 | 337 ft | 0 kts | 291° |
| 2026-05-07 19:50 | 38.76607 | -9.14275 | 337 ft | 2 kts | 291° |
| 2026-05-07 19:50 | 38.76621 | -9.14322 | 337 ft | 11 kts | 291° |
| 2026-05-07 19:50 | 38.76693 | -9.14362 | 337 ft | 19 kts | 19° |
| 2026-05-07 19:50 | 38.77029 | -9.14189 | 344 ft | 89 kts | 19° |
| 2026-05-07 19:51 | 38.77813 | -9.13763 | 360 ft | 152 kts | 21° |
| 2026-05-07 19:51 | 38.78842 | -9.13170 | 798 ft | 167 kts | 25° |
| 2026-05-07 19:51 | 38.79851 | -9.12434 | 1498 ft | 169 kts | 28° |
| 2026-05-07 19:51 | 38.80888 | -9.11655 | 1987 ft | 181 kts | 27° |
| 2026-05-07 19:52 | 38.82022 | -9.10839 | 2464 ft | 195 kts | 26° |
| 2026-05-07 19:52 | 38.83255 | -9.09979 | 2933 ft | 210 kts | 26° |
| 2026-05-07 19:52 | 38.84623 | -9.09046 | 3344 ft | 233 kts | 26° |
| 2026-05-07 19:52 | 38.86111 | -9.08038 | 3896 ft | 250 kts | 26° |
| 2026-05-07 19:53 | 38.87669 | -9.06985 | 4542 ft | 262 kts | 26° |
| 2026-05-07 19:53 | 38.89249 | -9.05781 | 5427 ft | 265 kts | 34° |
| 2026-05-07 19:53 | 38.90698 | -9.04329 | 6266 ft | 270 kts | 41° |
| 2026-05-07 19:53 | 38.92111 | -9.02690 | 6953 ft | 281 kts | 44° |
| 2026-05-07 19:54 | 38.93551 | -9.00972 | 7783 ft | 286 kts | 44° |
| 2026-05-07 19:54 | 38.95025 | -8.99217 | 8666 ft | 290 kts | 43° |
| 2026-05-07 19:54 | 38.96524 | -8.97445 | 9544 ft | 293 kts | 43° |
| 2026-05-07 19:54 | 38.98047 | -8.95655 | 10387 ft | 298 kts | 43° |
| 2026-05-07 19:55 | 38.99618 | -8.93811 | 10924 ft | 313 kts | 43° |
| 2026-05-07 19:55 | 39.01273 | -8.91874 | 11457 ft | 327 kts | 42° |
| 2026-05-07 19:55 | 39.02940 | -8.89923 | 12198 ft | 332 kts | 42° |
| 2026-05-07 19:55 | 39.04635 | -8.87939 | 12968 ft | 336 kts | 42° |
| 2026-05-07 19:56 | 39.06364 | -8.85917 | 13702 ft | 340 kts | 42° |
| 2026-05-07 19:56 | 39.08120 | -8.83865 | 14419 ft | 344 kts | 42° |
| 2026-05-07 19:56 | 39.09871 | -8.81816 | 15109 ft | 348 kts | 42° |
| 2026-05-07 19:56 | 39.11634 | -8.79750 | 15781 ft | 352 kts | 42° |
| 2026-05-07 19:57 | 39.13385 | -8.77694 | 16426 ft | 355 kts | 42° |
| 2026-05-07 19:57 | 39.15224 | -8.75535 | 17076 ft | 359 kts | 42° |
| 2026-05-07 19:57 | 39.17025 | -8.73288 | 17702 ft | 363 kts | 46° |
| 2026-05-07 19:57 | 39.18622 | -8.71044 | 18277 ft | 366 kts | 48° |
| 2026-05-07 19:58 | 39.20244 | -8.68676 | 18853 ft | 370 kts | 49° |
| 2026-05-07 19:58 | 39.21905 | -8.66231 | 19415 ft | 373 kts | 49° |
| 2026-05-07 19:58 | 39.23615 | -8.63714 | 19984 ft | 377 kts | 49° |
| 2026-05-07 19:58 | 39.25350 | -8.61161 | 20544 ft | 380 kts | 49° |
| 2026-05-07 19:59 | 39.27074 | -8.58626 | 21083 ft | 384 kts | 49° |
| 2026-05-07 19:59 | 39.28858 | -8.56002 | 21618 ft | 387 kts | 49° |
| 2026-05-07 19:59 | 39.30552 | -8.53511 | 22118 ft | 390 kts | 49° |
| 2026-05-07 19:59 | 39.32239 | -8.51028 | 22610 ft | 393 kts | 49° |
| 2026-05-07 20:00 | 39.33964 | -8.48489 | 23092 ft | 396 kts | 49° |
| 2026-05-07 20:00 | 39.35676 | -8.45965 | 23552 ft | 399 kts | 49° |
| 2026-05-07 20:00 | 39.37458 | -8.43338 | 24016 ft | 402 kts | 49° |
| 2026-05-07 20:00 | 39.39311 | -8.40602 | 24482 ft | 405 kts | 49° |
| 2026-05-07 20:01 | 39.41085 | -8.37981 | 24919 ft | 408 kts | 49° |
| 2026-05-07 20:01 | 39.42876 | -8.35335 | 25348 ft | 411 kts | 49° |
| 2026-05-07 20:01 | 39.44751 | -8.32560 | 25782 ft | 414 kts | 49° |
| 2026-05-07 20:01 | 39.46652 | -8.29745 | 26198 ft | 417 kts | 49° |
| 2026-05-07 20:02 | 39.48532 | -8.26957 | 26607 ft | 420 kts | 49° |
| 2026-05-07 20:02 | 39.50440 | -8.24128 | 27009 ft | 423 kts | 49° |
| 2026-05-07 20:02 | 39.52340 | -8.21345 | 27387 ft | 425 kts | 46° |
| 2026-05-07 20:02 | 39.54571 | -8.18917 | 27746 ft | 428 kts | 34° |
| 2026-05-07 20:03 | 39.57051 | -8.16806 | 28139 ft | 430 kts | 32° |
| 2026-05-07 20:03 | 39.59580 | -8.14726 | 28494 ft | 433 kts | 32° |
| 2026-05-07 20:03 | 39.62101 | -8.12589 | 28834 ft | 436 kts | 33° |
| 2026-05-07 20:03 | 39.64587 | -8.10408 | 29170 ft | 438 kts | 34° |
| 2026-05-07 20:04 | 39.67094 | -8.08165 | 29505 ft | 441 kts | 34° |
| 2026-05-07 20:04 | 39.69635 | -8.05933 | 29852 ft | 442 kts | 32° |
| 2026-05-07 20:04 | 39.72248 | -8.03796 | 30194 ft | 444 kts | 31° |
| 2026-05-07 20:04 | 39.74877 | -8.01690 | 30510 ft | 446 kts | 31° |
| 2026-05-07 20:05 | 39.77452 | -7.99629 | 30807 ft | 448 kts | 31° |
| 2026-05-07 20:05 | 39.80101 | -7.97500 | 31098 ft | 451 kts | 31° |
| 2026-05-07 20:05 | 39.82750 | -7.95364 | 31383 ft | 453 kts | 31° |
| 2026-05-07 20:05 | 39.85442 | -7.93185 | 31663 ft | 455 kts | 31° |
| 2026-05-07 20:06 | 39.88100 | -7.91030 | 31940 ft | 457 kts | 31° |
| 2026-05-07 20:06 | 39.90779 | -7.88853 | 32207 ft | 459 kts | 31° |
| 2026-05-07 20:06 | 39.93515 | -7.86627 | 32463 ft | 461 kts | 31° |
| 2026-05-07 20:06 | 39.96243 | -7.84405 | 32709 ft | 463 kts | 31° |
| 2026-05-07 20:07 | 39.98999 | -7.82158 | 32951 ft | 464 kts | 31° |
| 2026-05-07 20:07 | 40.01768 | -7.79899 | 33246 ft | 465 kts | 31° |
| 2026-05-07 20:07 | 40.04507 | -7.77661 | 33575 ft | 464 kts | 31° |
| 2026-05-07 20:07 | 40.07244 | -7.75423 | 33897 ft | 463 kts | 31° |
| 2026-05-07 20:08 | 40.09980 | -7.73184 | 34196 ft | 463 kts | 31° |
| 2026-05-07 20:08 | 40.12700 | -7.70955 | 34482 ft | 462 kts | 31° |
| 2026-05-07 20:08 | 40.15413 | -7.68730 | 34766 ft | 462 kts | 31° |
| 2026-05-07 20:08 | 40.18134 | -7.66495 | 35046 ft | 461 kts | 31° |
| 2026-05-07 20:09 | 40.20853 | -7.64262 | 35323 ft | 461 kts | 31° |
| 2026-05-07 20:09 | 40.23546 | -7.62049 | 35591 ft | 460 kts | 31° |
| 2026-05-07 20:09 | 40.26237 | -7.59833 | 35850 ft | 459 kts | 31° |
| 2026-05-07 20:10 | 40.31633 | -7.55384 | 35992 ft | 460 kts | 31° |
| 2026-05-07 20:10 | 40.37027 | -7.50930 | 35996 ft | 460 kts | 31° |
| 2026-05-07 20:11 | 40.42447 | -7.46443 | 35996 ft | 459 kts | 31° |
| 2026-05-07 20:11 | 40.47831 | -7.41981 | 35997 ft | 459 kts | 31° |
| 2026-05-07 20:12 | 40.53219 | -7.37504 | 35997 ft | 459 kts | 31° |
| 2026-05-07 20:12 | 40.58658 | -7.32978 | 35997 ft | 460 kts | 32° |
| 2026-05-07 20:13 | 40.64053 | -7.28479 | 35997 ft | 459 kts | 32° |
| 2026-05-07 20:13 | 40.69465 | -7.23958 | 35997 ft | 459 kts | 32° |
| 2026-05-07 20:14 | 40.74865 | -7.19438 | 35997 ft | 460 kts | 32° |
| 2026-05-07 20:14 | 40.80259 | -7.14916 | 35997 ft | 460 kts | 32° |
| 2026-05-07 20:15 | 40.85741 | -7.10308 | 35997 ft | 460 kts | 32° |
| 2026-05-07 20:15 | 40.91132 | -7.05766 | 35997 ft | 461 kts | 33° |
| 2026-05-07 20:16 | 40.96529 | -7.01212 | 35997 ft | 461 kts | 33° |
| 2026-05-07 20:16 | 41.01878 | -6.96681 | 35993 ft | 467 kts | 32° |
| 2026-05-07 20:17 | 41.07391 | -6.91996 | 35994 ft | 474 kts | 31° |
| 2026-05-07 20:17 | 41.12926 | -6.87289 | 35996 ft | 477 kts | 29° |
| 2026-05-07 20:18 | 41.18512 | -6.82559 | 35997 ft | 477 kts | 29° |
| 2026-05-07 20:18 | 41.24106 | -6.77801 | 35997 ft | 477 kts | 29° |
| 2026-05-07 20:19 | 41.29438 | -6.73244 | 35998 ft | 479 kts | 29° |
| 2026-05-07 20:19 | 41.34915 | -6.68554 | 36135 ft | 480 kts | 29° |
| 2026-05-07 20:19 | 41.37669 | -6.66193 | 36396 ft | 479 kts | 29° |
| 2026-05-07 20:20 | 41.39539 | -6.64590 | 36542 ft | 479 kts | 29° |
| 2026-05-07 20:20 | 41.43248 | -6.61405 | 36755 ft | 480 kts | 29° |
| 2026-05-07 20:20 | 41.46038 | -6.59005 | 36903 ft | 482 kts | 29° |
| 2026-05-07 20:20 | 41.48812 | -6.56618 | 37052 ft | 483 kts | 29° |
| 2026-05-07 20:21 | 41.51632 | -6.54188 | 37201 ft | 484 kts | 29° |
| 2026-05-07 20:21 | 41.54416 | -6.51789 | 37339 ft | 485 kts | 29° |
| 2026-05-07 20:21 | 41.57250 | -6.49342 | 37477 ft | 485 kts | 29° |
| 2026-05-07 20:21 | 41.60039 | -6.46930 | 37621 ft | 486 kts | 29° |
| 2026-05-07 20:22 | 41.62843 | -6.44506 | 37747 ft | 487 kts | 29° |
| 2026-05-07 20:22 | 41.65671 | -6.42056 | 37863 ft | 488 kts | 29° |
| 2026-05-07 20:22 | 41.68506 | -6.39598 | 37911 ft | 489 kts | 29° |
| 2026-05-07 20:23 | 41.74181 | -6.34671 | 37915 ft | 489 kts | 30° |
| 2026-05-07 20:23 | 41.79852 | -6.29737 | 37917 ft | 489 kts | 30° |
| 2026-05-07 20:24 | 41.85563 | -6.24755 | 37918 ft | 489 kts | 30° |
| 2026-05-07 20:24 | 41.91210 | -6.19816 | 37917 ft | 489 kts | 30° |
| 2026-05-07 20:25 | 41.96888 | -6.14840 | 37918 ft | 489 kts | 30° |
| 2026-05-07 20:25 | 42.02580 | -6.09844 | 37917 ft | 489 kts | 30° |
| 2026-05-07 20:26 | 42.08240 | -6.04864 | 37917 ft | 489 kts | 30° |
| 2026-05-07 20:26 | 42.13892 | -5.99882 | 37917 ft | 490 kts | 30° |
| 2026-05-07 20:27 | 42.19659 | -5.94786 | 37918 ft | 490 kts | 30° |
| 2026-05-07 20:27 | 42.25360 | -5.89737 | 37917 ft | 489 kts | 30° |
| 2026-05-07 20:28 | 42.31035 | -5.84702 | 37917 ft | 489 kts | 30° |
| 2026-05-07 20:28 | 42.36741 | -5.79627 | 37918 ft | 489 kts | 30° |
| 2026-05-07 20:29 | 42.42433 | -5.74554 | 37918 ft | 490 kts | 30° |
| 2026-05-07 20:29 | 42.48033 | -5.69553 | 37917 ft | 490 kts | 30° |
| 2026-05-07 20:30 | 42.53723 | -5.64456 | 37917 ft | 489 kts | 30° |
| 2026-05-07 20:30 | 42.59364 | -5.59397 | 37917 ft | 489 kts | 30° |
| 2026-05-07 20:31 | 42.65048 | -5.54285 | 37917 ft | 489 kts | 30° |
| 2026-05-07 20:31 | 42.70692 | -5.49198 | 37917 ft | 489 kts | 30° |
| 2026-05-07 20:32 | 42.76343 | -5.44098 | 37917 ft | 489 kts | 30° |
| 2026-05-07 20:32 | 42.81995 | -5.38981 | 37917 ft | 489 kts | 30° |
| 2026-05-07 20:33 | 42.87635 | -5.33863 | 37915 ft | 490 kts | 31° |
| 2026-05-07 20:33 | 42.93277 | -5.28727 | 37917 ft | 490 kts | 30° |
| 2026-05-07 20:34 | 42.98920 | -5.23579 | 37917 ft | 489 kts | 30° |
| 2026-05-07 20:34 | 43.04588 | -5.18401 | 37917 ft | 489 kts | 30° |
| 2026-05-07 20:35 | 43.10196 | -5.13270 | 37917 ft | 489 kts | 30° |
| 2026-05-07 20:35 | 43.15823 | -5.08111 | 37917 ft | 488 kts | 30° |
| 2026-05-07 20:36 | 43.21434 | -5.02952 | 37917 ft | 489 kts | 30° |
| 2026-05-07 20:36 | 43.27088 | -4.97736 | 37915 ft | 490 kts | 29° |
| 2026-05-07 20:37 | 43.32748 | -4.92506 | 37912 ft | 492 kts | 29° |
| 2026-05-07 20:37 | 43.38412 | -4.87262 | 37909 ft | 493 kts | 28° |
| 2026-05-07 20:38 | 43.44107 | -4.81980 | 37905 ft | 495 kts | 28° |
| 2026-05-07 20:38 | 43.49900 | -4.76594 | 37900 ft | 496 kts | 28° |
| 2026-05-07 20:39 | 43.55599 | -4.71285 | 37897 ft | 496 kts | 28° |
| 2026-05-07 20:39 | 43.61364 | -4.65919 | 37893 ft | 496 kts | 28° |
| 2026-05-07 20:40 | 43.67094 | -4.60616 | 37892 ft | 496 kts | 28° |
| 2026-05-07 20:40 | 43.72844 | -4.55280 | 37891 ft | 496 kts | 28° |
| 2026-05-07 20:41 | 43.78563 | -4.49958 | 37891 ft | 496 kts | 28° |
| 2026-05-07 20:41 | 43.84313 | -4.44594 | 37891 ft | 496 kts | 28° |
| 2026-05-07 20:42 | 43.90025 | -4.39252 | 37890 ft | 496 kts | 28° |
| 2026-05-07 20:42 | 43.95750 | -4.33885 | 37887 ft | 496 kts | 28° |
| 2026-05-07 20:43 | 44.01439 | -4.28543 | 37891 ft | 496 kts | 28° |
| 2026-05-07 20:43 | 44.07205 | -4.23112 | 37891 ft | 496 kts | 28° |
| 2026-05-07 20:44 | 44.12942 | -4.17697 | 37891 ft | 496 kts | 28° |
| 2026-05-07 20:44 | 44.18644 | -4.12303 | 37890 ft | 497 kts | 28° |
| 2026-05-07 20:45 | 44.24353 | -4.06886 | 37891 ft | 497 kts | 28° |
| 2026-05-07 20:45 | 44.30284 | -4.01952 | 37891 ft | 489 kts | 20° |
| 2026-05-07 20:46 | 44.36457 | -3.98448 | 37891 ft | 480 kts | 10° |
| 2026-05-07 20:46 | 44.42984 | -3.96286 | 37891 ft | 472 kts | 2° |
| 2026-05-07 20:47 | 44.49495 | -3.94837 | 37890 ft | 471 kts | 1° |
| 2026-05-07 20:47 | 44.56010 | -3.93400 | 37891 ft | 472 kts | 1° |
| 2026-05-07 20:48 | 44.62522 | -3.91920 | 37891 ft | 471 kts | 1° |
| 2026-05-07 20:48 | 44.69063 | -3.90415 | 37890 ft | 472 kts | 1° |
| 2026-05-07 20:49 | 44.75584 | -3.88905 | 37891 ft | 472 kts | 1° |
| 2026-05-07 20:49 | 44.82102 | -3.87392 | 37891 ft | 472 kts | 1° |
| 2026-05-07 20:50 | 44.88651 | -3.85867 | 37896 ft | 472 kts | 1° |
| 2026-05-07 20:50 | 44.95331 | -3.84308 | 37903 ft | 472 kts | 1° |
| 2026-05-07 20:51 | 45.01861 | -3.82780 | 37909 ft | 472 kts | 1° |
| 2026-05-07 20:51 | 45.08430 | -3.81237 | 37912 ft | 471 kts | 1° |
| 2026-05-07 20:52 | 45.14939 | -3.79707 | 37913 ft | 470 kts | 1° |
| 2026-05-07 20:52 | 45.21491 | -3.78165 | 37915 ft | 469 kts | 1° |
| 2026-05-07 20:53 | 45.28013 | -3.76629 | 37916 ft | 470 kts | 1° |
| 2026-05-07 20:53 | 45.34481 | -3.75099 | 37916 ft | 469 kts | 1° |
| 2026-05-07 20:54 | 45.41011 | -3.73550 | 37915 ft | 469 kts | 1° |
| 2026-05-07 20:54 | 45.47466 | -3.72016 | 37916 ft | 469 kts | 1° |
| 2026-05-07 20:55 | 45.53950 | -3.70470 | 37920 ft | 469 kts | 1° |
| 2026-05-07 20:55 | 45.60450 | -3.68919 | 37929 ft | 469 kts | 1° |
| 2026-05-07 20:56 | 45.66755 | -3.66795 | 37944 ft | 479 kts | 9° |
| 2026-05-07 20:56 | 45.72982 | -3.63873 | 37958 ft | 479 kts | 11° |
| 2026-05-07 20:57 | 45.80780 | -3.60207 | 37976 ft | 478 kts | 10° |
| 2026-05-07 20:57 | 46.05416 | -3.48833 | 37987 ft | 478 kts | 9° |
| 2026-05-07 20:58 | 46.30267 | -3.37312 | 37992 ft | 478 kts | 9° |
| 2026-05-07 20:58 | 46.55312 | -3.25561 | 37991 ft | 479 kts | 10° |
| 2026-05-07 20:59 | 46.80661 | -3.13560 | 38000 ft | 479 kts | 10° |
| 2026-05-07 20:59 | 47.05956 | -3.01382 | 37989 ft | 483 kts | 8° |
| 2026-05-07 21:00 | 47.31610 | -2.89113 | 38003 ft | 485 kts | 8° |
| 2026-05-07 21:00 | 47.57267 | -2.76546 | 38001 ft | 483 kts | 8° |
| 2026-05-07 21:01 | 47.82466 | -2.64088 | 38002 ft | 483 kts | 8° |